Time;durP1;ratioP1;P1;durP2;ratioP2;P2;SDS_P1;SDS_P2;PMS_P1;PMS_P2;Temp;Humidity;BMP_temperature;BMP_pressure;BME280_temperature;BME280_humidity;BME280_pressure;Samples;Min_cycle;Max_cycle;Signal;HPM_P1;HPM_P2
2022/05/20 00:00:34;;;;;;;5.47;3.30;;;20.50;99.90;;;;;;2087304;28;20538;-75
2022/05/20 00:01:35;;;;;;;5.90;3.63;;;20.50;99.90;;;;;;2087647;28;20029;-75
2022/05/20 00:02:36;;;;;;;5.63;3.83;;;20.50;99.90;;;;;;2088229;28;20731;-75
2022/05/20 00:03:38;;;;;;;4.97;3.70;;;20.50;99.90;;;;;;2088168;28;20028;-75
2022/05/20 00:04:39;;;;;;;4.72;3.60;;;20.50;99.90;;;;;;2088132;28;20031;-75
2022/05/20 00:05:40;;;;;;;5.72;3.60;;;20.50;99.90;;;;;;2088173;28;20025;-74
2022/05/20 00:06:40;;;;;;;4.65;3.50;;;20.40;99.90;;;;;;2088098;28;20132;-74
2022/05/20 00:07:42;;;;;;;4.68;3.97;;;20.40;99.90;;;;;;2087874;28;20063;-74
2022/05/20 00:08:43;;;;;;;5.15;3.80;;;20.40;99.90;;;;;;2088126;28;20544;-73
2022/05/20 00:09:44;;;;;;;4.70;3.90;;;20.40;99.90;;;;;;2087969;28;20025;-74
2022/05/20 00:10:44;;;;;;;4.80;3.80;;;20.40;99.90;;;;;;2087602;28;20025;-74
2022/05/20 00:11:45;;;;;;;4.68;3.70;;;20.40;99.90;;;;;;2087309;28;20507;-73
2022/05/20 00:12:47;;;;;;;5.57;3.83;;;20.40;99.90;;;;;;2087445;28;20086;-73
2022/05/20 00:13:47;;;;;;;6.20;4.07;;;20.40;99.90;;;;;;2087436;28;20124;-74
2022/05/20 00:14:48;;;;;;;9.93;4.10;;;20.30;99.90;;;;;;2087082;28;20021;-75
2022/05/20 00:15:49;;;;;;;6.88;4.20;;;20.30;99.90;;;;;;2087469;28;20032;-73
2022/05/20 00:16:50;;;;;;;6.70;4.10;;;20.30;99.90;;;;;;2087404;28;20037;-74
2022/05/20 00:17:51;;;;;;;4.93;4.25;;;20.30;99.90;;;;;;2087445;28;20402;-73
2022/05/20 00:18:51;;;;;;;4.40;4.00;;;20.30;99.90;;;;;;2087627;28;20118;-72
2022/05/20 00:19:52;;;;;;;7.03;4.13;;;20.30;99.90;;;;;;2087648;28;20033;-73
2022/05/20 00:20:53;;;;;;;5.18;4.30;;;20.20;99.90;;;;;;2087938;28;20036;-74
2022/05/20 00:21:54;;;;;;;4.80;4.00;;;20.20;99.90;;;;;;2088208;28;20028;-72
2022/05/20 00:22:55;;;;;;;4.75;3.90;;;20.20;99.90;;;;;;2088179;28;20484;-73
2022/05/20 00:23:56;;;;;;;5.03;4.10;;;20.20;99.90;;;;;;2087994;28;20025;-73
2022/05/20 00:26:18;;;;;;;4.15;3.75;;;20.10;99.90;;;;;;2078317;28;20549;-73
2022/05/20 00:27:18;;;;;;;8.63;3.95;;;20.10;99.90;;;;;;2085671;28;20094;-72
2022/05/20 00:28:21;;;;;;;5.55;3.90;;;20.10;99.90;;;;;;2088125;28;20060;-72
2022/05/20 00:29:23;;;;;;;7.05;4.50;;;20.00;99.90;;;;;;2088024;28;20025;-72
2022/05/20 00:30:24;;;;;;;6.05;3.80;;;20.00;99.90;;;;;;2087841;28;20113;-73
2022/05/20 00:31:26;;;;;;;5.18;3.80;;;20.00;99.90;;;;;;2087596;28;20541;-73
2022/05/20 00:32:27;;;;;;;6.43;4.15;;;20.00;99.90;;;;;;2088001;28;20029;-72
2022/05/20 00:33:28;;;;;;;5.78;4.05;;;20.00;99.90;;;;;;2087992;28;20029;-73
2022/05/20 00:34:28;;;;;;;6.53;4.00;;;20.00;99.90;;;;;;2079172;28;20036;-73
2022/05/20 00:35:29;;;;;;;6.15;4.25;;;19.90;99.90;;;;;;2079021;28;20037;-72
2022/05/20 00:36:30;;;;;;;4.40;3.97;;;19.90;99.90;;;;;;2090348;28;20043;-74
2022/05/20 00:37:30;;;;;;;5.35;3.70;;;19.90;99.90;;;;;;2096008;28;20463;-75
2022/05/20 00:38:31;;;;;;;5.70;4.10;;;19.90;99.90;;;;;;2096148;28;20033;-73
2022/05/20 00:39:32;;;;;;;5.00;3.65;;;19.90;99.90;;;;;;2093889;28;20120;-72
2022/05/20 00:40:34;;;;;;;5.07;4.00;;;19.90;99.90;;;;;;2087360;28;20087;-74
2022/05/20 00:41:35;;;;;;;4.13;3.72;;;19.90;99.90;;;;;;2088012;28;20041;-72
2022/05/20 00:42:36;;;;;;;5.32;3.85;;;19.80;99.90;;;;;;2087421;28;20480;-72
2022/05/20 00:43:40;;;;;;;4.43;3.95;;;19.80;99.90;;;;;;2087356;28;20435;-73
2022/05/20 00:44:41;;;;;;;7.00;4.10;;;19.80;99.90;;;;;;2087859;28;20025;-74
2022/05/20 00:45:44;;;;;;;8.25;4.22;;;19.80;99.90;;;;;;2087715;28;20025;-73
2022/05/20 00:46:45;;;;;;;5.53;4.43;;;19.80;99.90;;;;;;2087827;28;20028;-74
2022/05/20 00:47:45;;;;;;;4.50;4.10;;;19.80;99.90;;;;;;2087024;28;20191;-73
2022/05/20 00:48:49;;;;;;;5.47;4.03;;;19.70;99.90;;;;;;2088366;28;20087;-72
2022/05/20 00:49:53;;;;;;;7.15;4.10;;;19.70;99.90;;;;;;2089480;28;20037;-75
2022/05/20 00:51:03;;;;;;;4.30;3.90;;;19.70;99.90;;;;;;2089160;28;20129;-73
2022/05/20 00:52:06;;;;;;;6.70;4.03;;;19.70;99.90;;;;;;2089465;28;20108;-75
2022/05/20 00:53:07;;;;;;;5.47;4.15;;;19.60;99.90;;;;;;2089346;28;20033;-73
2022/05/20 00:54:12;;;;;;;6.10;3.90;;;19.60;99.90;;;;;;2088951;28;20071;-73
2022/05/20 00:55:16;;;;;;;4.78;4.15;;;19.60;99.90;;;;;;2080834;28;20132;-72
2022/05/20 00:56:22;;;;;;;4.90;4.10;;;19.60;99.90;;;;;;2089153;28;20509;-73
2022/05/20 00:57:35;;;;;;;8.05;4.10;;;19.60;99.90;;;;;;2089510;28;20020;-73
2022/05/20 00:58:36;;;;;;;6.82;4.07;;;19.60;99.90;;;;;;2088677;28;20711;-72
2022/05/20 00:59:40;;;;;;;5.18;4.13;;;19.60;99.90;;;;;;2088751;28;20029;-73
2022/05/20 01:00:48;;;;;;;7.72;3.78;;;19.50;99.90;;;;;;2089194;28;20028;-75
2022/05/20 01:01:54;;;;;;;6.75;4.20;;;19.50;99.90;;;;;;2089592;28;20025;-73
2022/05/20 01:02:59;;;;;;;5.40;3.97;;;19.50;99.90;;;;;;2089684;28;20537;-73
2022/05/20 01:04:01;;;;;;;6.10;4.00;;;19.40;99.90;;;;;;2089486;28;20021;-73
2022/05/20 01:05:05;;;;;;;5.72;3.60;;;19.40;99.90;;;;;;2088895;28;20064;-74
2022/05/20 01:06:08;;;;;;;4.30;3.90;;;19.40;99.90;;;;;;2089137;28;20558;-74
2022/05/20 01:07:10;;;;;;;6.65;3.85;;;19.40;99.90;;;;;;2089572;28;20043;-73
2022/05/20 01:08:15;;;;;;;5.55;3.83;;;19.40;99.90;;;;;;2089488;28;20124;-75
2022/05/20 01:09:16;;;;;;;6.90;4.18;;;19.40;99.90;;;;;;2088682;28;20369;-74
2022/05/20 01:10:16;;;;;;;6.35;4.00;;;19.40;99.90;;;;;;2088612;28;20625;-75
2022/05/20 01:11:17;;;;;;;6.95;4.40;;;19.40;99.90;;;;;;2088987;28;20472;-74
2022/05/20 01:12:18;;;;;;;6.18;4.50;;;19.30;99.90;;;;;;2088667;28;20029;-74
2022/05/20 01:13:21;;;;;;;5.70;4.35;;;19.30;99.90;;;;;;2089248;28;20487;-74
2022/05/20 01:14:24;;;;;;;6.40;4.28;;;19.30;99.90;;;;;;2089834;28;20108;-73
2022/05/20 01:15:25;;;;;;;5.72;4.13;;;19.20;99.90;;;;;;2089803;28;20032;-73
2022/05/20 01:16:26;;;;;;;5.43;3.80;;;19.20;99.90;;;;;;2089414;28;20485;-74
2022/05/20 01:17:28;;;;;;;6.82;3.80;;;19.20;99.90;;;;;;2089104;28;20032;-74
2022/05/20 01:18:32;;;;;;;7.85;4.30;;;19.20;99.90;;;;;;2089957;28;20057;-73
2022/05/20 01:19:42;;;;;;;6.60;4.32;;;19.20;99.90;;;;;;2089347;28;20029;-75
2022/05/20 01:20:46;;;;;;;4.20;3.80;;;19.20;99.90;;;;;;2082004;28;20028;-73
2022/05/20 01:21:46;;;;;;;6.65;4.20;;;19.10;99.90;;;;;;2089503;28;20033;-73
2022/05/20 01:22:56;;;;;;;4.40;3.83;;;19.10;99.90;;;;;;2089283;28;20032;-74
2022/05/20 01:24:01;;;;;;;6.25;3.85;;;19.10;99.90;;;;;;2082439;28;20063;-73
2022/05/20 01:25:03;;;;;;;5.53;4.00;;;19.10;99.90;;;;;;2089042;28;20037;-73
2022/05/20 01:26:05;;;;;;;6.22;3.95;;;19.10;99.90;;;;;;2089160;28;20047;-73
2022/05/20 01:27:06;;;;;;;4.18;3.75;;;19.10;99.90;;;;;;2089285;28;20029;-73
2022/05/20 01:28:07;;;;;;;6.35;4.18;;;19.00;99.90;;;;;;2089795;28;20037;-73
2022/05/20 01:29:08;;;;;;;4.82;3.97;;;19.00;99.90;;;;;;2089794;28;20046;-73
2022/05/20 01:30:11;;;;;;;6.70;4.20;;;19.00;99.90;;;;;;2089696;28;20530;-73
2022/05/20 01:31:14;;;;;;;5.10;4.20;;;19.00;99.90;;;;;;2089433;28;20033;-73
2022/05/20 01:32:15;;;;;;;5.45;3.78;;;19.00;99.90;;;;;;2089486;28;20029;-73
2022/05/20 01:33:23;;;;;;;4.93;3.95;;;19.00;99.90;;;;;;2089778;28;20117;-73
2022/05/20 01:34:24;;;;;;;4.78;3.78;;;19.00;99.90;;;;;;2089214;28;20029;-73
2022/05/20 01:35:40;;;;;;;5.22;3.67;;;18.90;99.90;;;;;;2080768;28;20036;-74
2022/05/20 01:36:41;;;;;;;5.30;3.80;;;18.90;99.90;;;;;;2082772;28;20045;-73
2022/05/20 01:37:41;;;;;;;4.88;3.80;;;18.90;99.90;;;;;;2080632;28;20515;-74
2022/05/20 01:38:43;;;;;;;4.10;3.60;;;18.90;99.90;;;;;;2089177;28;20421;-73
2022/05/20 01:39:43;;;;;;;6.57;3.83;;;18.90;99.90;;;;;;2088955;28;20067;-73
2022/05/20 01:41:04;;;;;;;5.60;4.13;;;18.90;99.90;;;;;;2089216;28;20837;-72
2022/05/20 01:42:16;;;;;;;8.65;3.63;;;18.90;99.90;;;;;;2089853;28;20640;-73
2022/05/20 01:43:47;;;;;;;5.40;3.90;;;18.90;99.90;;;;;;2089812;28;20032;-73
2022/05/20 01:44:54;;;;;;;;;;;18.80;99.90;;;;;;2089336;28;20036;-73
2022/05/20 01:46:14;;;;;;;4.65;3.70;;;18.80;99.90;;;;;;2081610;28;19912;-73
2022/05/20 01:47:28;;;;;;;5.57;3.58;;;18.80;99.90;;;;;;2083635;28;20033;-72
2022/05/20 01:48:38;;;;;;;4.10;3.70;;;18.80;99.90;;;;;;2082749;28;20055;-73
2022/05/20 01:49:41;;;;;;;4.55;3.70;;;18.80;99.90;;;;;;2089307;28;20383;-73
2022/05/20 01:50:49;;;;;;;5.63;3.58;;;18.80;99.90;;;;;;2088796;28;20078;-73
2022/05/20 01:52:00;;;;;;;6.28;3.33;;;18.80;99.90;;;;;;2089140;28;20021;-73
2022/05/20 01:53:09;;;;;;;5.45;3.85;;;18.80;99.90;;;;;;2089285;28;20429;-72
2022/05/20 01:54:21;;;;;;;4.78;3.65;;;18.80;99.90;;;;;;2088937;28;20033;-72
2022/05/20 01:55:36;;;;;;;6.82;3.70;;;18.80;99.90;;;;;;2082188;28;20497;-73
2022/05/20 01:56:46;;;;;;;7.95;3.83;;;18.80;99.90;;;;;;2089280;28;20033;-73
2022/05/20 01:57:55;;;;;;;6.07;4.07;;;18.80;99.90;;;;;;2089688;28;20159;-73
2022/05/20 01:59:05;;;;;;;6.45;3.70;;;18.80;99.90;;;;;;2089323;28;20021;-73
2022/05/20 02:00:20;;;;;;;6.97;3.70;;;18.70;99.90;;;;;;2089033;28;20013;-74
2022/05/20 02:01:26;;;;;;;7.63;4.07;;;18.70;99.90;;;;;;2089119;28;20175;-74
2022/05/20 02:02:32;;;;;;;5.97;3.78;;;18.70;99.90;;;;;;2089171;28;20037;-73
2022/05/20 02:03:44;;;;;;;5.93;3.75;;;18.70;99.90;;;;;;2089667;28;20033;-73
2022/05/20 02:04:50;;;;;;;6.55;3.80;;;18.70;99.90;;;;;;2089813;28;20476;-73
2022/05/20 02:05:56;;;;;;;5.45;3.53;;;18.60;99.90;;;;;;2089843;28;20025;-75
2022/05/20 02:07:02;;;;;;;4.90;3.90;;;18.60;99.90;;;;;;2089125;28;20036;-75
2022/05/20 02:08:12;;;;;;;6.25;4.00;;;18.60;99.90;;;;;;2089237;28;20021;-74
2022/05/20 02:09:19;;;;;;;7.45;4.05;;;18.60;99.90;;;;;;2089664;28;20071;-73
2022/05/20 02:10:29;;;;;;;5.30;3.80;;;18.60;99.90;;;;;;2089584;28;20038;-73
2022/05/20 02:11:54;;;;;;;5.25;3.90;;;18.50;99.90;;;;;;2089655;28;20040;-74
2022/05/20 02:12:59;;;;;;;7.10;3.90;;;18.50;99.90;;;;;;2089029;28;20036;-74
2022/05/20 02:14:06;;;;;;;4.32;3.90;;;18.50;99.90;;;;;;2081240;28;20030;-74
2022/05/20 02:15:11;;;;;;;6.03;3.72;;;18.50;99.90;;;;;;2088874;28;20045;-74
2022/05/20 02:16:18;;;;;;;5.97;3.78;;;18.40;99.90;;;;;;2089562;28;20499;-74
2022/05/20 02:17:33;;;;;;;5.43;3.78;;;18.40;99.90;;;;;;2089579;28;20033;-74
2022/05/20 02:18:41;;;;;;;5.47;3.83;;;18.40;99.90;;;;;;2089486;28;20057;-74
2022/05/20 02:19:59;;;;;;;5.30;3.90;;;18.40;99.90;;;;;;2089524;28;20025;-74
2022/05/20 02:21:05;;;;;;;7.30;4.40;;;18.40;99.90;;;;;;2089527;28;20029;-74
2022/05/20 02:22:11;;;;;;;6.78;4.35;;;18.40;99.90;;;;;;2089522;28;20025;-74
2022/05/20 02:23:16;;;;;;;6.88;4.90;;;18.50;99.90;;;;;;2089543;28;20092;-74
2022/05/20 02:24:21;;;;;;;5.40;4.45;;;18.40;99.90;;;;;;2088858;28;20736;-74
2022/05/20 02:25:29;;;;;;;5.25;4.30;;;18.40;99.90;;;;;;2088830;28;20518;-75
2022/05/20 02:26:37;;;;;;;5.07;4.15;;;18.40;99.90;;;;;;2089518;28;20029;-73
2022/05/20 02:27:42;;;;;;;6.03;5.00;;;18.40;99.90;;;;;;2088847;28;20033;-74
2022/05/20 02:28:52;;;;;;;6.05;5.00;;;18.40;99.90;;;;;;2088851;28;20079;-73
2022/05/20 02:30:09;;;;;;;7.72;4.78;;;18.40;99.90;;;;;;2089311;28;20057;-74
2022/05/20 02:31:15;;;;;;;6.00;4.50;;;18.40;99.90;;;;;;2089112;28;20032;-74
2022/05/20 02:32:29;;;;;;;4.72;4.28;;;18.40;99.90;;;;;;2089293;28;20037;-74
2022/05/20 02:33:30;;;;;;;9.15;4.85;;;18.30;99.90;;;;;;2088885;28;20064;-74
2022/05/20 02:34:34;;;;;;;5.38;4.40;;;18.30;99.90;;;;;;2088793;28;20036;-74
2022/05/20 02:35:35;;;;;;;6.35;4.60;;;18.30;99.90;;;;;;2088760;28;20048;-74
2022/05/20 02:36:36;;;;;;;5.13;4.63;;;18.30;99.90;;;;;;2088587;28;20032;-74
2022/05/20 02:37:38;;;;;;;5.93;4.50;;;18.30;99.90;;;;;;2088750;28;20037;-74
2022/05/20 02:38:39;;;;;;;5.57;4.60;;;18.30;99.90;;;;;;2089139;28;20067;-74
2022/05/20 02:39:39;;;;;;;4.82;4.35;;;18.20;99.90;;;;;;2089351;28;20126;-73
2022/05/20 02:40:43;;;;;;;5.32;4.55;;;18.20;99.90;;;;;;2088472;28;20025;-73
2022/05/20 02:41:46;;;;;;;6.22;4.72;;;18.20;99.90;;;;;;2088954;28;20067;-73
2022/05/20 02:42:47;;;;;;;5.00;4.50;;;18.20;99.90;;;;;;2088741;28;20086;-73
2022/05/20 02:43:47;;;;;;;6.20;4.32;;;18.20;99.90;;;;;;2088886;28;20021;-74
2022/05/20 02:44:48;;;;;;;7.45;5.15;;;18.20;99.90;;;;;;2089591;28;20029;-73
2022/05/20 02:45:51;;;;;;;7.72;5.07;;;18.20;99.90;;;;;;2088683;28;20029;-73
2022/05/20 02:46:52;;;;;;;6.68;4.65;;;18.20;99.90;;;;;;2089753;28;20024;-73
2022/05/20 02:47:53;;;;;;;6.38;4.80;;;18.10;99.90;;;;;;2089460;28;20542;-73
2022/05/20 02:48:53;;;;;;;7.45;4.95;;;18.10;99.90;;;;;;2089355;28;20028;-72
2022/05/20 02:49:54;;;;;;;8.05;4.82;;;18.10;99.90;;;;;;2089313;28;20035;-72
2022/05/20 02:50:58;;;;;;;9.25;5.00;;;18.10;99.90;;;;;;2089526;28;20033;-73
2022/05/20 02:51:58;;;;;;;7.97;4.85;;;18.10;99.90;;;;;;2089913;28;20031;-73
2022/05/20 02:53:00;;;;;;;6.72;4.78;;;18.00;99.90;;;;;;2090004;28;20037;-73
2022/05/20 02:54:00;;;;;;;6.07;4.80;;;18.00;99.90;;;;;;2090437;28;20017;-72
2022/05/20 02:55:02;;;;;;;6.35;4.60;;;18.00;99.90;;;;;;2089392;28;20057;-72
2022/05/20 02:56:04;;;;;;;8.32;4.93;;;18.00;99.90;;;;;;2089298;28;20059;-73
2022/05/20 02:57:05;;;;;;;6.13;4.57;;;18.00;99.90;;;;;;2089735;28;20020;-73
2022/05/20 02:58:06;;;;;;;6.45;4.68;;;18.00;99.90;;;;;;2089624;28;20108;-74
2022/05/20 03:04:23;;;;;;;6.40;4.90;;;17.80;99.90;;;;;;2089043;28;20143;-74
2022/05/20 03:05:24;;;;;;;6.75;4.97;;;17.80;99.90;;;;;;2088500;28;20032;-73
2022/05/20 03:06:25;;;;;;;5.22;4.72;;;17.80;99.90;;;;;;2088436;28;20664;-73
2022/05/20 03:07:25;;;;;;;7.25;4.80;;;17.80;99.90;;;;;;2089007;28;20036;-74
2022/05/20 03:08:26;;;;;;;5.70;5.13;;;17.80;99.90;;;;;;2089138;28;20055;-74
2022/05/20 03:09:26;;;;;;;5.88;4.93;;;17.80;99.90;;;;;;2088855;28;20033;-74
2022/05/20 03:10:28;;;;;;;6.15;4.63;;;17.80;99.90;;;;;;2087614;28;20029;-73
2022/05/20 03:11:29;;;;;;;5.57;4.95;;;17.80;99.90;;;;;;2079378;28;20033;-73
2022/05/20 03:12:29;;;;;;;6.35;4.72;;;17.80;99.90;;;;;;2079985;28;20373;-73
2022/05/20 03:13:30;;;;;;;6.10;4.97;;;17.80;99.90;;;;;;2088350;28;20414;-73
2022/05/20 03:14:31;;;;;;;5.43;4.60;;;17.80;99.90;;;;;;2088829;28;20091;-74
2022/05/20 03:15:32;;;;;;;5.18;4.65;;;17.80;99.90;;;;;;2088225;28;20029;-74
2022/05/20 03:16:33;;;;;;;6.00;4.75;;;17.80;99.90;;;;;;2088382;28;20037;-74
2022/05/20 03:17:33;;;;;;;5.43;4.82;;;17.80;99.90;;;;;;2088772;28;20475;-74
2022/05/20 03:18:34;;;;;;;5.25;4.75;;;17.80;99.90;;;;;;2088241;28;20415;-74
2022/05/20 03:19:34;;;;;;;5.93;4.63;;;17.80;99.90;;;;;;2088184;28;20095;-74
2022/05/20 03:20:37;;;;;;;5.00;4.50;;;17.80;99.90;;;;;;2088223;28;20033;-74
2022/05/20 03:21:38;;;;;;;5.35;4.28;;;17.80;99.90;;;;;;2080415;28;20025;-73
2022/05/20 03:22:38;;;;;;;5.53;4.28;;;17.80;99.90;;;;;;2088417;28;20113;-74
2022/05/20 03:23:39;;;;;;;4.88;4.35;;;17.80;99.90;;;;;;2088034;28;20029;-74
2022/05/20 03:24:41;;;;;;;5.38;4.47;;;17.80;99.90;;;;;;2079929;28;20399;-74
2022/05/20 03:25:42;;;;;;;5.90;5.00;;;17.80;99.90;;;;;;2071960;28;20089;-74
2022/05/20 03:26:43;;;;;;;6.60;4.78;;;17.80;99.90;;;;;;2088297;28;20116;-74
2022/05/20 03:27:43;;;;;;;7.50;4.80;;;17.80;99.90;;;;;;2088597;28;20036;-72
2022/05/20 03:28:45;;;;;;;5.53;4.72;;;17.80;99.90;;;;;;2088990;28;20029;-74
2022/05/20 03:29:46;;;;;;;6.57;4.70;;;17.80;99.90;;;;;;2088141;28;20033;-73
2022/05/20 03:30:47;;;;;;;5.75;4.30;;;17.80;99.90;;;;;;2088033;28;20028;-74
2022/05/20 03:31:48;;;;;;;4.88;4.43;;;17.80;99.90;;;;;;2088816;28;20029;-74
2022/05/20 03:32:48;;;;;;;5.07;4.50;;;17.80;99.90;;;;;;2088908;28;20044;-74
2022/05/20 03:33:49;;;;;;;7.07;4.53;;;17.80;99.90;;;;;;2088970;28;20064;-75
2022/05/20 03:34:49;;;;;;;5.68;4.53;;;17.90;99.90;;;;;;2088742;28;20497;-75
2022/05/20 03:35:50;;;;;;;6.90;4.60;;;17.90;99.90;;;;;;2088389;28;20089;-74
2022/05/20 03:36:50;;;;;;;5.72;4.40;;;17.90;99.90;;;;;;2080004;28;20021;-74
2022/05/20 03:37:51;;;;;;;7.15;4.70;;;17.90;99.90;;;;;;2088319;28;20112;-74
2022/05/20 03:38:52;;;;;;;7.43;4.40;;;18.00;99.90;;;;;;2088303;28;20051;-73
2022/05/20 03:39:52;;;;;;;4.80;3.90;;;18.00;99.90;;;;;;2088164;28;20915;-74
2022/05/20 03:40:53;;;;;;;7.55;4.25;;;17.90;99.90;;;;;;2089007;28;20549;-74
2022/05/20 03:41:55;;;;;;;6.20;4.35;;;18.00;99.90;;;;;;2088880;28;20029;-74
2022/05/20 03:42:57;;;;;;;4.78;4.28;;;18.00;99.90;;;;;;2088315;28;20078;-73
2022/05/20 03:43:58;;;;;;;6.97;3.90;;;18.10;99.90;;;;;;2088214;28;20040;-74
2022/05/20 03:44:59;;;;;;;4.13;3.72;;;18.10;99.90;;;;;;2088977;28;20028;-74
2022/05/20 03:46:00;;;;;;;6.35;3.88;;;18.20;99.90;;;;;;2088993;28;20021;-73
2022/05/20 03:47:01;;;;;;;4.22;3.83;;;18.20;99.90;;;;;;2088913;28;20104;-74
2022/05/20 03:48:01;;;;;;;4.75;4.07;;;18.20;99.90;;;;;;2088319;28;20074;-74
2022/05/20 03:49:02;;;;;;;5.15;4.13;;;18.20;99.90;;;;;;2088249;28;20025;-74
2022/05/20 03:50:04;;;;;;;4.40;4.00;;;18.30;99.90;;;;;;2087980;28;20080;-74
2022/05/20 03:51:10;;;;;;;6.50;4.05;;;18.30;99.90;;;;;;2088062;28;20450;-74
2022/05/20 03:52:11;;;;;;;6.15;4.60;;;18.30;99.90;;;;;;2088961;28;20032;-74
2022/05/20 03:53:11;;;;;;;4.50;3.88;;;18.40;99.90;;;;;;2088807;28;20031;-74
2022/05/20 03:54:15;;;;;;;4.03;3.63;;;18.30;99.90;;;;;;2088135;28;20033;-74
2022/05/20 03:55:15;;;;;;;4.45;3.80;;;18.40;99.90;;;;;;2088111;28;20021;-74
2022/05/20 03:56:16;;;;;;;3.78;3.47;;;18.40;99.90;;;;;;2087937;28;20188;-74
2022/05/20 03:57:16;;;;;;;5.53;3.78;;;18.40;99.90;;;;;;2088208;28;20078;-74
2022/05/20 03:58:17;;;;;;;5.20;3.80;;;18.50;99.90;;;;;;2088132;28;20082;-75
2022/05/20 03:59:17;;;;;;;4.82;3.97;;;18.50;99.90;;;;;;2079808;28;20787;-73
2022/05/20 04:00:19;;;;;;;4.40;3.80;;;18.60;99.90;;;;;;2079703;28;20033;-74
2022/05/20 04:02:38;;;;;;;5.38;3.80;;;18.60;99.90;;;;;;2088489;28;20039;-73
2022/05/20 04:03:43;;;;;;;4.00;3.60;;;18.70;99.90;;;;;;2088528;28;20033;-74
2022/05/20 04:04:50;;;;;;;4.28;3.60;;;18.70;99.90;;;;;;2088869;28;20437;-74
2022/05/20 04:05:53;;;;;;;6.88;3.95;;;18.80;99.90;;;;;;2088523;28;20044;-74
2022/05/20 04:06:54;;;;;;;7.13;3.90;;;18.90;99.90;;;;;;2088662;28;20506;-74
2022/05/20 04:07:55;;;;;;;6.68;3.88;;;19.00;99.90;;;;;;2088776;28;20100;-74
2022/05/20 04:08:55;;;;;;;7.40;3.92;;;19.00;99.90;;;;;;2088535;28;20758;-74
2022/05/20 04:09:56;;;;;;;3.95;3.42;;;19.20;99.90;;;;;;2088591;28;20067;-74
2022/05/20 04:10:57;;;;;;;4.88;3.47;;;19.30;99.90;;;;;;2088595;28;20025;-74
2022/05/20 04:11:59;;;;;;;5.65;3.33;;;19.60;99.90;;;;;;2088767;28;20032;-74
2022/05/20 04:13:00;;;;;;;4.03;3.22;;;20.00;99.90;;;;;;2094378;28;20031;-74
2022/05/20 04:14:01;;;;;;;5.57;3.50;;;20.30;99.90;;;;;;2098323;28;20009;-74
2022/05/20 04:15:03;;;;;;;3.67;3.35;;;20.70;99.90;;;;;;2097423;28;20021;-74
2022/05/20 04:16:05;;;;;;;4.75;3.35;;;21.00;99.90;;;;;;2092455;28;20040;-75
2022/05/20 04:17:06;;;;;;;3.20;2.90;;;21.20;99.90;;;;;;2088957;28;20024;-73
2022/05/20 04:18:06;;;;;;;5.72;3.20;;;21.50;99.90;;;;;;2088756;28;20067;-75
2022/05/20 04:19:07;;;;;;;5.13;3.28;;;21.70;99.90;;;;;;2088772;28;20108;-74
2022/05/20 04:20:08;;;;;;;4.82;3.20;;;21.90;99.90;;;;;;2088813;28;20025;-74
2022/05/20 04:21:11;;;;;;;6.22;3.20;;;22.10;99.90;;;;;;2088554;28;20036;-74
2022/05/20 04:22:13;;;;;;;5.63;3.00;;;22.20;99.90;;;;;;2087928;28;20353;-74
2022/05/20 04:23:16;;;;;;;3.58;3.08;;;22.40;99.90;;;;;;2088177;28;20039;-74
2022/05/20 04:24:16;;;;;;;4.30;2.90;;;22.50;99.90;;;;;;2088690;28;20024;-74
2022/05/20 04:25:17;;;;;;;4.10;2.83;;;22.60;99.90;;;;;;2088533;28;20033;-74
2022/05/20 04:26:18;;;;;;;3.50;2.83;;;22.80;99.90;;;;;;2088508;28;20061;-74
2022/05/20 04:27:19;;;;;;;4.07;3.03;;;22.90;99.90;;;;;;2088055;28;20111;-74
2022/05/20 04:28:20;;;;;;;5.25;3.05;;;23.00;99.90;;;;;;2087994;28;20017;-74
2022/05/20 04:29:21;;;;;;;5.10;2.70;;;23.10;99.90;;;;;;2088415;28;20033;-74
2022/05/20 04:30:21;;;;;;;6.28;3.00;;;23.10;99.90;;;;;;2087976;28;20029;-74
2022/05/20 04:31:22;;;;;;;3.72;2.92;;;23.10;99.90;;;;;;2087991;28;20451;-74
2022/05/20 04:32:23;;;;;;;3.25;2.90;;;23.10;99.90;;;;;;2087923;28;20408;-74
2022/05/20 04:33:25;;;;;;;6.88;3.30;;;23.10;99.90;;;;;;2079819;28;20030;-74
2022/05/20 04:34:26;;;;;;;4.85;2.90;;;23.10;99.90;;;;;;2071730;28;20026;-74
2022/05/20 04:35:26;;;;;;;4.13;2.80;;;23.00;99.90;;;;;;2063458;28;20034;-74
2022/05/20 04:36:27;;;;;;;3.67;2.78;;;23.00;99.90;;;;;;2079719;28;20060;-74
2022/05/20 04:37:27;;;;;;;3.88;2.60;;;23.00;99.90;;;;;;2088090;28;20025;-74
2022/05/20 04:38:28;;;;;;;3.40;2.47;;;23.00;99.90;;;;;;2087989;28;20063;-74
2022/05/20 04:39:29;;;;;;;3.58;2.72;;;23.10;99.90;;;;;;2087975;28;20063;-74
2022/05/20 04:40:29;;;;;;;6.13;3.03;;;23.10;99.90;;;;;;2087951;28;20461;-74
2022/05/20 04:46:56;;;;;;;5.10;2.92;;;23.50;99.90;;;;;;2088542;28;20036;-74
2022/05/20 04:48:00;;;;;;;5.55;2.58;;;23.50;99.90;;;;;;2088685;28;20043;-74
2022/05/20 04:49:00;;;;;;;3.88;2.75;;;23.60;99.90;;;;;;2088753;28;20035;-74
2022/05/20 04:50:04;;;;;;;5.93;2.90;;;23.70;99.90;;;;;;2087469;28;20613;-74
2022/05/20 04:51:04;;;;;;;3.83;2.92;;;23.70;99.90;;;;;;2087928;28;20040;-74
2022/05/20 04:52:06;;;;;;;3.35;2.80;;;23.80;99.90;;;;;;2088569;28;20445;-74
2022/05/20 04:53:07;;;;;;;5.18;2.90;;;23.80;99.90;;;;;;2088526;28;20021;-74
2022/05/20 04:55:29;;;;;;;4.60;2.60;;;23.90;99.30;;;;;;2087690;28;20061;-74
2022/05/20 04:56:30;;;;;;;5.55;2.70;;;24.00;98.90;;;;;;2087631;28;20032;-73
2022/05/20 04:57:43;;;;;;;5.18;2.78;;;24.00;98.40;;;;;;2087118;28;20025;-74
2022/05/20 04:58:44;;;;;;;4.78;2.67;;;24.00;98.10;;;;;;2080542;28;20040;-74
2022/05/20 04:59:45;;;;;;;5.25;2.40;;;24.30;97.60;;;;;;2087101;28;20096;-74
2022/05/20 05:00:49;;;;;;;5.40;2.45;;;24.40;97.10;;;;;;2086749;28;20067;-74
2022/05/20 05:01:49;;;;;;;7.68;2.72;;;24.50;96.80;;;;;;2086882;28;20028;-74
2022/05/20 05:02:51;;;;;;;5.10;2.63;;;24.60;96.00;;;;;;2087175;28;20098;-73
2022/05/20 05:03:52;;;;;;;2.70;2.50;;;24.60;95.70;;;;;;2087005;28;20130;-73
2022/05/20 05:04:54;;;;;;;7.50;3.10;;;24.70;95.50;;;;;;2087864;28;20102;-73
2022/05/20 05:05:54;;;;;;;7.88;3.08;;;24.60;94.90;;;;;;2087689;28;20033;-73
2022/05/20 05:06:55;;;;;;;5.07;2.70;;;24.40;95.70;;;;;;2087548;28;20149;-74
2022/05/20 05:07:57;;;;;;;3.42;2.58;;;24.50;95.80;;;;;;2087519;28;20021;-74
2022/05/20 05:08:58;;;;;;;6.35;2.80;;;24.60;95.80;;;;;;2087635;28;20057;-73
2022/05/20 05:10:00;;;;;;;4.80;2.65;;;24.50;95.00;;;;;;2087457;28;20380;-74
2022/05/20 05:11:00;;;;;;;7.70;3.20;;;24.40;95.20;;;;;;2087437;28;20022;-74
2022/05/20 05:12:03;;;;;;;4.65;3.15;;;24.20;95.40;;;;;;2087633;28;20033;-74
2022/05/20 05:13:05;;;;;;;7.65;3.08;;;24.00;95.90;;;;;;2087389;28;20025;-74
2022/05/20 05:14:07;;;;;;;5.55;2.80;;;23.90;96.50;;;;;;2087906;28;20032;-74
2022/05/20 05:15:10;;;;;;;4.68;2.72;;;23.90;96.70;;;;;;2088220;28;20017;-74
2022/05/20 05:16:10;;;;;;;5.35;3.13;;;23.90;96.90;;;;;;2087175;28;20486;-74
2022/05/20 05:17:13;;;;;;;6.85;3.22;;;23.90;96.80;;;;;;2087519;28;20021;-74
2022/05/20 05:18:25;;;;;;;4.32;2.65;;;24.00;96.40;;;;;;2088063;28;20526;-75
2022/05/20 05:19:25;;;;;;;5.30;3.67;;;24.20;96.20;;;;;;2087883;28;20464;-74
2022/05/20 05:20:28;;;;;;;4.38;3.60;;;24.30;95.30;;;;;;2087393;28;20116;-73
2022/05/20 05:21:28;;;;;;;6.35;3.80;;;24.30;95.80;;;;;;2086842;28;20838;-73
2022/05/20 05:22:29;;;;;;;6.30;4.10;;;24.40;95.50;;;;;;2078955;28;20025;-74
2022/05/20 05:23:31;;;;;;;5.07;3.70;;;24.20;95.70;;;;;;2087052;28;20029;-74
2022/05/20 05:24:32;;;;;;;5.00;4.50;;;24.20;96.00;;;;;;2087486;28;20029;-74
2022/05/20 05:25:34;;;;;;;6.70;4.80;;;24.30;95.70;;;;;;2087295;28;20084;-73
2022/05/20 05:26:35;;;;;;;6.32;4.50;;;24.40;95.10;;;;;;2087542;28;20057;-73
2022/05/20 05:27:36;;;;;;;8.57;4.80;;;24.40;94.90;;;;;;2087614;28;20025;-73
2022/05/20 05:28:37;;;;;;;6.63;4.50;;;24.40;94.80;;;;;;2086980;28;20040;-74
2022/05/20 05:29:39;;;;;;;6.03;4.50;;;24.30;94.90;;;;;;2086947;28;20056;-74
2022/05/20 05:30:42;;;;;;;6.00;3.80;;;24.40;94.70;;;;;;2087525;28;20141;-75
2022/05/20 05:31:43;;;;;;;5.80;3.70;;;24.50;94.70;;;;;;2087817;28;20032;-73
2022/05/20 05:32:44;;;;;;;6.97;4.88;;;24.60;94.10;;;;;;2087673;28;20068;-73
2022/05/20 05:33:45;;;;;;;7.55;5.22;;;24.60;93.40;;;;;;2086775;28;20033;-74
2022/05/20 05:34:45;;;;;;;6.05;4.70;;;24.30;93.80;;;;;;2088106;28;20671;-74
2022/05/20 05:35:46;;;;;;;5.35;4.07;;;24.20;94.00;;;;;;2088353;28;20033;-73
2022/05/20 05:36:47;;;;;;;4.95;4.10;;;24.30;94.00;;;;;;2088581;28;20597;-73
2022/05/20 05:37:48;;;;;;;6.82;4.00;;;24.40;93.90;;;;;;2088551;28;20032;-74
2022/05/20 05:38:48;;;;;;;7.97;5.60;;;24.50;93.80;;;;;;2088592;28;20028;-73
2022/05/20 05:39:49;;;;;;;11.88;7.15;;;24.30;94.00;;;;;;2088423;28;20098;-74
2022/05/20 05:40:49;;;;;;;7.38;5.50;;;24.00;94.10;;;;;;2079879;28;20744;-74
2022/05/20 05:41:50;;;;;;;9.48;7.40;;;23.80;94.70;;;;;;2080290;28;20192;-75
2022/05/20 05:42:51;;;;;;;8.63;7.20;;;23.80;94.90;;;;;;2080163;28;20041;-74